Time;durP1;ratioP1;P1;durP2;ratioP2;P2;SDS_P1;SDS_P2;PMS_P1;PMS_P2;Temp;Humidity;BMP_temperature;BMP_pressure;BME280_temperature;BME280_humidity;BME280_pressure;Samples;Min_cycle;Max_cycle;Signal;HPM_P1;HPM_P2
2023/08/27 00:00:10;;;;;;;9.02;3.90;;;;;;;;;;5052891;28;20077;-70
2023/08/27 00:02:36;;;;;;;8.90;3.15;;;;;;;;;;5038681;28;20094;-69
2023/08/27 00:05:01;;;;;;;9.57;3.30;;;;;;;;;;5045847;28;20056;-69
2023/08/27 00:07:26;;;;;;;5.40;2.60;;;;;;;;;;5044547;28;20029;-68
2023/08/27 00:09:51;;;;;;;9.15;2.80;;;;;;;;;;5062219;28;20021;-69
2023/08/27 00:12:17;;;;;;;9.73;2.75;;;;;;;;;;5063625;28;20025;-67
2023/08/27 00:14:42;;;;;;;5.88;2.75;;;;;;;;;;5049723;28;20049;-70
2023/08/27 00:17:08;;;;;;;6.13;2.90;;;;;;;;;;5049842;28;20108;-67
2023/08/27 00:19:33;;;;;;;9.45;2.80;;;;;;;;;;5050338;28;20012;-67
2023/08/27 00:21:58;;;;;;;4.97;2.65;;;;;;;;;;5050452;28;20027;-68
2023/08/27 00:24:24;;;;;;;4.93;2.72;;;;;;;;;;5054238;28;20013;-71
2023/08/27 00:26:49;;;;;;;12.55;3.13;;;;;;;;;;5050312;28;20040;-68
2023/08/27 00:29:18;;;;;;;5.10;3.00;;;;;;;;;;5049692;28;20035;-72
2023/08/27 00:31:43;;;;;;;5.53;2.88;;;;;;;;;;5062730;28;20025;-69
2023/08/27 00:34:08;;;;;;;9.13;3.30;;;;;;;;;;5053754;28;20028;-70
2023/08/27 00:36:33;;;;;;;6.05;3.03;;;;;;;;;;5057037;28;20064;-69
2023/08/27 00:38:58;;;;;;;6.13;3.00;;;;;;;;;;5051148;22;20065;-67
2023/08/27 00:41:24;;;;;;;11.50;3.30;;;;;;;;;;5027025;28;20253;-65
2023/08/27 00:43:49;;;;;;;8.75;3.17;;;;;;;;;;5027565;28;20045;-67
2023/08/27 00:46:14;;;;;;;10.48;3.63;;;;;;;;;;5027171;28;20033;-66
2023/08/27 00:48:40;;;;;;;7.43;3.28;;;;;;;;;;5025794;28;20139;-67
2023/08/27 00:51:05;;;;;;;8.98;4.15;;;;;;;;;;5026769;28;20040;-67
2023/08/27 00:53:31;;;;;;;7.65;3.22;;;;;;;;;;5026128;28;20232;-66
2023/08/27 00:55:57;;;;;;;7.80;3.30;;;;;;;;;;5027191;28;20442;-67
2023/08/27 00:58:22;;;;;;;6.63;3.15;;;;;;;;;;5027680;28;20068;-65
2023/08/27 01:00:48;;;;;;;11.02;2.90;;;;;;;;;;5018638;28;20072;-68
2023/08/27 01:03:13;;;;;;;10.20;3.35;;;;;;;;;;5024550;28;20081;-66
2023/08/27 01:05:38;;;;;;;6.63;3.75;;;;;;;;;;5013132;28;20017;-67
2023/08/27 01:08:11;;;;;;;7.82;4.18;;;;;;;;;;5025934;28;20108;-64
2023/08/27 01:10:54;;;;;;;9.65;4.00;;;;;;;;;;5026415;28;20029;-68
2023/08/27 01:13:31;;;;;;;8.30;3.60;;;;;;;;;;5014897;28;20141;-67
2023/08/27 01:16:00;;;;;;;7.78;4.00;;;;;;;;;;5027383;28;20152;-65
2023/08/27 01:18:26;;;;;;;12.00;3.85;;;;;;;;;;5024292;28;20017;-63
2023/08/27 01:20:52;;;;;;;6.63;3.33;;;;;;;;;;5025504;28;20505;-66
2023/08/27 01:23:17;;;;;;;6.25;3.55;;;;;;;;;;5024671;28;20456;-66
2023/08/27 01:25:50;;;;;;;6.80;3.53;;;;;;;;;;5025797;28;20026;-66
2023/08/27 01:28:33;;;;;;;6.47;3.28;;;;;;;;;;5027714;28;20028;-66
2023/08/27 01:31:13;;;;;;;6.25;3.00;;;;;;;;;;5026697;28;20026;-66
2023/08/27 01:33:38;;;;;;;8.80;3.10;;;;;;;;;;5025973;28;20083;-66
2023/08/27 01:36:04;;;;;;;7.70;3.15;;;;;;;;;;5026905;28;20034;-66
2023/08/27 01:38:29;;;;;;;7.97;2.83;;;;;;;;;;5025330;28;20082;-67
2023/08/27 01:40:54;;;;;;;5.72;3.03;;;;;;;;;;5026914;28;20029;-65
2023/08/27 01:43:20;;;;;;;11.13;2.72;;;;;;;;;;5025558;28;20339;-68
2023/08/27 01:45:45;;;;;;;6.28;2.50;;;;;;;;;;5026355;28;20024;-67
2023/08/27 01:48:11;;;;;;;7.13;3.25;;;;;;;;;;5024696;28;20057;-66
2023/08/27 01:50:36;;;;;;;6.60;3.05;;;;;;;;;;5025336;28;20401;-67
2023/08/27 01:53:02;;;;;;;7.32;2.90;;;;;;;;;;5027184;28;20029;-66
2023/08/27 01:55:27;;;;;;;12.98;3.55;;;;;;;;;;5025041;28;20810;-67
2023/08/27 01:57:53;;;;;;;12.73;3.10;;;;;;;;;;5025357;28;20111;-65
2023/08/27 02:00:20;;;;;;;8.38;3.08;;;;;;;;;;5022245;28;20014;-67
2023/08/27 02:02:45;;;;;;;6.72;3.13;;;;;;;;;;5016480;28;20152;-67
2023/08/27 02:05:10;;;;;;;9.93;3.78;;;;;;;;;;5013019;28;20112;-63
2023/08/27 02:07:39;;;;;;;7.50;3.55;;;;;;;;;;5023447;28;20029;-66
2023/08/27 02:10:08;;;;;;;7.25;3.58;;;;;;;;;;5027080;28;20125;-67
2023/08/27 02:12:33;;;;;;;6.70;3.35;;;;;;;;;;5027375;28;20419;-65
2023/08/27 02:14:59;;;;;;;8.15;3.30;;;;;;;;;;5026784;28;20055;-68
2023/08/27 02:17:24;;;;;;;10.57;3.38;;;;;;;;;;5026171;28;20048;-65
2023/08/27 02:19:49;;;;;;;6.35;3.45;;;;;;;;;;5027110;28;20021;-68
2023/08/27 02:22:15;;;;;;;12.05;3.70;;;;;;;;;;5027118;28;20041;-66
2023/08/27 02:24:40;;;;;;;6.40;3.35;;;;;;;;;;5026277;28;20387;-64
2023/08/27 02:27:05;;;;;;;10.30;3.75;;;;;;;;;;5026875;28;20434;-66
2023/08/27 02:29:30;;;;;;;12.75;4.03;;;;;;;;;;5027490;28;20068;-63
2023/08/27 02:31:56;;;;;;;9.60;3.40;;;;;;;;;;5026485;28;20032;-67
2023/08/27 02:34:21;;;;;;;7.03;3.53;;;;;;;;;;5028908;28;20021;-66
2023/08/27 02:36:46;;;;;;;9.52;3.40;;;;;;;;;;5030454;28;20395;-67
2023/08/27 02:39:11;;;;;;;9.40;3.35;;;;;;;;;;5030321;28;20030;-66
2023/08/27 02:41:37;;;;;;;7.90;3.22;;;;;;;;;;5030381;28;20101;-68
2023/08/27 02:44:02;;;;;;;7.35;3.20;;;;;;;;;;5028408;28;20033;-65
2023/08/27 02:46:27;;;;;;;6.88;3.53;;;;;;;;;;5030512;28;20036;-67
2023/08/27 02:48:53;;;;;;;7.78;3.17;;;;;;;;;;5029083;28;20399;-66
2023/08/27 02:51:18;;;;;;;6.80;3.30;;;;;;;;;;5028857;28;20483;-67
2023/08/27 02:53:43;;;;;;;6.75;2.47;;;;;;;;;;5026448;28;20443;-67
2023/08/27 02:56:09;;;;;;;8.25;3.17;;;;;;;;;;5028938;28;20040;-65
2023/08/27 02:58:35;;;;;;;6.43;3.10;;;;;;;;;;5030496;28;20024;-66
2023/08/27 03:01:00;;;;;;;6.85;2.95;;;;;;;;;;5025794;28;20018;-64
2023/08/27 03:03:25;;;;;;;8.88;3.50;;;;;;;;;;5024872;28;20113;-66
2023/08/27 03:05:51;;;;;;;7.05;2.83;;;;;;;;;;5014115;28;20439;-65
2023/08/27 03:08:16;;;;;;;10.20;3.30;;;;;;;;;;5029666;28;20083;-67
2023/08/27 03:10:42;;;;;;;13.23;3.17;;;;;;;;;;5029494;28;20101;-67
2023/08/27 03:13:07;;;;;;;7.68;3.22;;;;;;;;;;5029219;28;20051;-67
2023/08/27 03:15:33;;;;;;;8.02;3.03;;;;;;;;;;5028440;28;20021;-67
2023/08/27 03:17:58;;;;;;;4.78;2.20;;;;;;;;;;5028781;28;20013;-66
2023/08/27 03:20:23;;;;;;;6.15;2.50;;;;;;;;;;5028498;28;20407;-67
2023/08/27 03:22:48;;;;;;;5.35;2.60;;;;;;;;;;5029770;28;20171;-67
2023/08/27 03:25:14;;;;;;;6.90;3.08;;;;;;;;;;5027932;28;20021;-67
2023/08/27 03:27:39;;;;;;;6.60;3.50;;;;;;;;;;5027875;28;20025;-65
2023/08/27 03:30:04;;;;;;;7.97;3.17;;;;;;;;;;5028317;28;20104;-67
2023/08/27 03:32:30;;;;;;;6.93;3.17;;;;;;;;;;5026803;28;20063;-65
2023/08/27 03:34:55;;;;;;;8.77;3.47;;;;;;;;;;5026908;28;20021;-67
2023/08/27 03:37:21;;;;;;;8.93;3.13;;;;;;;;;;5027975;28;20447;-66
2023/08/27 03:39:46;;;;;;;8.35;3.40;;;;;;;;;;5029118;28;20056;-67
2023/08/27 03:42:11;;;;;;;8.88;3.47;;;;;;;;;;5029834;28;20100;-67
2023/08/27 03:44:36;;;;;;;9.30;3.58;;;;;;;;;;5026571;28;20112;-63
2023/08/27 03:47:02;;;;;;;7.15;3.90;;;;;;;;;;5028463;28;20029;-67
2023/08/27 03:49:27;;;;;;;8.10;3.78;;;;;;;;;;5026982;28;20064;-66
2023/08/27 03:51:53;;;;;;;10.35;4.63;;;;;;;;;;5027024;28;20029;-67
2023/08/27 03:54:18;;;;;;;8.05;3.92;;;;;;;;;;5027918;28;20036;-67
2023/08/27 03:56:43;;;;;;;15.02;4.75;;;;;;;;;;5028372;28;20029;-68
2023/08/27 03:59:11;;;;;;;12.98;5.35;;;;;;;;;;5028664;28;20025;-65
2023/08/27 04:01:37;;;;;;;12.45;5.22;;;;;;;;;;5021559;28;20029;-64
2023/08/27 04:04:03;;;;;;;10.18;5.93;;;;;;;;;;5026683;28;20331;-67
2023/08/27 04:06:28;;;;;;;11.73;6.10;;;;;;;;;;5017955;28;20032;-67
2023/08/27 04:08:53;;;;;;;10.70;6.00;;;;;;;;;;5027417;28;20021;-66
2023/08/27 04:11:19;;;;;;;11.10;5.68;;;;;;;;;;5028975;28;20462;-64
2023/08/27 04:13:44;;;;;;;9.15;5.53;;;;;;;;;;5028010;28;20018;-66
2023/08/27 04:16:10;;;;;;;6.95;3.72;;;;;;;;;;5026886;28;20624;-64
2023/08/27 04:18:35;;;;;;;6.82;4.07;;;;;;;;;;5025732;28;20013;-63
2023/08/27 04:21:01;;;;;;;7.13;3.80;;;;;;;;;;5029012;28;20028;-66
2023/08/27 04:23:27;;;;;;;7.32;3.63;;;;;;;;;;5028034;28;20041;-63
2023/08/27 04:25:53;;;;;;;8.05;3.47;;;;;;;;;;5027334;28;20017;-66
2023/08/27 04:28:18;;;;;;;8.77;3.63;;;;;;;;;;5028391;28;20391;-66
2023/08/27 04:30:46;;;;;;;8.45;4.10;;;;;;;;;;5028009;28;20063;-66
2023/08/27 04:33:11;;;;;;;10.77;4.40;;;;;;;;;;5027328;28;20047;-67
2023/08/27 04:35:36;;;;;;;7.65;4.43;;;;;;;;;;5026381;28;20128;-63
2023/08/27 04:38:03;;;;;;;8.75;4.75;;;;;;;;;;5027042;28;20052;-67
2023/08/27 04:40:28;;;;;;;7.53;3.72;;;;;;;;;;5028217;28;20024;-63
2023/08/27 04:42:53;;;;;;;12.00;4.35;;;;;;;;;;5027311;28;20014;-67
2023/08/27 04:45:19;;;;;;;8.55;4.18;;;;;;;;;;5026377;28;20025;-65
2023/08/27 04:47:44;;;;;;;9.10;4.18;;;;;;;;;;5026057;28;20037;-67
2023/08/27 04:50:09;;;;;;;10.23;3.90;;;;;;;;;;5026009;28;20022;-66
2023/08/27 04:52:35;;;;;;;7.85;3.90;;;;;;;;;;5026290;28;20021;-65
2023/08/27 04:55:00;;;;;;;7.93;4.00;;;;;;;;;;5025753;28;20032;-68
2023/08/27 04:57:26;;;;;;;7.00;3.33;;;;;;;;;;5026150;28;20009;-66
2023/08/27 04:59:51;;;;;;;7.00;3.20;;;;;;;;;;5026993;28;20018;-67
2023/08/27 05:02:16;;;;;;;6.47;2.97;;;;;;;;;;5018804;28;20097;-68
2023/08/27 05:04:41;;;;;;;4.82;2.80;;;;;;;;;;5018356;28;20468;-67
2023/08/27 05:07:07;;;;;;;10.48;3.65;;;;;;;;;;5019215;28;20022;-66
2023/08/27 05:09:32;;;;;;;6.22;3.10;;;;;;;;;;5026258;28;20478;-67
2023/08/27 05:11:57;;;;;;;8.40;3.38;;;;;;;;;;5028495;28;20132;-65
2023/08/27 05:14:22;;;;;;;8.82;3.40;;;;;;;;;;5025869;28;20017;-66
2023/08/27 05:16:48;;;;;;;7.75;3.78;;;;;;;;;;5027882;28;20037;-66
2023/08/27 05:19:13;;;;;;;6.93;3.35;;;;;;;;;;5026320;28;20026;-64
2023/08/27 05:21:38;;;;;;;7.68;3.40;;;;;;;;;;5025807;28;20045;-66
2023/08/27 05:24:03;;;;;;;7.32;3.03;;;;;;;;;;5024911;28;20035;-64
2023/08/27 05:26:29;;;;;;;7.53;3.55;;;;;;;;;;5026253;28;20108;-66
2023/08/27 05:28:55;;;;;;;9.02;3.20;;;;;;;;;;5025772;28;20033;-64
2023/08/27 05:31:20;;;;;;;6.57;3.20;;;;;;;;;;5026040;28;20049;-68
2023/08/27 05:33:45;;;;;;;6.57;3.45;;;;;;;;;;5024481;28;20063;-66
2023/08/27 05:36:11;;;;;;;9.45;3.83;;;;;;;;;;5025152;28;20117;-67
2023/08/27 05:38:36;;;;;;;7.25;3.65;;;;;;;;;;5024866;28;20048;-66
2023/08/27 05:41:01;;;;;;;5.57;3.30;;;;;;;;;;5028012;28;20017;-66
2023/08/27 05:43:27;;;;;;;10.93;4.07;;;;;;;;;;5027543;28;20027;-67
2023/08/27 05:45:52;;;;;;;9.15;3.67;;;;;;;;;;5027103;28;20018;-64
2023/08/27 05:48:17;;;;;;;7.85;3.17;;;;;;;;;;5026521;28;20047;-66
2023/08/27 05:50:44;;;;;;;10.23;3.17;;;;;;;;;;5027063;28;20029;-66
2023/08/27 05:53:10;;;;;;;8.77;3.72;;;;;;;;;;5027514;28;20079;-66
2023/08/27 05:55:36;;;;;;;15.80;3.85;;;;;;;;;;5026762;28;20108;-65
2023/08/27 05:58:02;;;;;;;12.52;3.75;;;;;;;;;;5027346;28;20113;-68
2023/08/27 06:00:27;;;;;;;12.13;3.63;;;;;;;;;;5023004;28;20022;-67
2023/08/27 06:02:52;;;;;;;10.18;3.88;;;;;;;;;;5022691;28;20024;-65
2023/08/27 06:05:18;;;;;;;11.40;4.03;;;;;;;;;;5013894;28;20466;-69
2023/08/27 06:07:43;;;;;;;6.10;3.22;;;;;;;;;;5022245;28;20052;-64
2023/08/27 06:10:08;;;;;;;12.73;3.58;;;;;;;;;;5031184;28;20117;-67
2023/08/27 06:12:33;;;;;;;6.32;3.72;;;;;;;;;;5031306;28;20029;-67
2023/08/27 06:14:59;;;;;;;7.35;3.10;;;;;;;;;;5030954;28;20025;-66
2023/08/27 06:17:24;;;;;;;12.13;3.78;;;;;;;;;;5029641;28;20376;-68
2023/08/27 06:19:49;;;;;;;5.70;2.85;;;;;;;;;;5031174;28;20021;-67
2023/08/27 06:22:15;;;;;;;8.30;3.78;;;;;;;;;;5029082;28;20140;-66
2023/08/27 06:24:40;;;;;;;7.53;3.28;;;;;;;;;;5029914;28;20452;-67
2023/08/27 06:27:06;;;;;;;8.88;3.70;;;;;;;;;;5029233;28;20490;-67
2023/08/27 06:29:32;;;;;;;8.53;3.73;;;;;;;;;;5030838;28;20021;-63
2023/08/27 06:31:57;;;;;;;7.63;3.30;;;;;;;;;;5030410;28;20247;-65
2023/08/27 06:34:22;;;;;;;6.38;2.63;;;;;;;;;;5029735;28;20124;-68
2023/08/27 06:36:47;;;;;;;7.90;3.10;;;;;;;;;;5030535;28;20068;-64
2023/08/27 06:39:13;;;;;;;10.02;3.60;;;;;;;;;;5030571;28;20399;-67
2023/08/27 06:41:38;;;;;;;12.05;3.08;;;;;;;;;;5029345;28;20021;-67
2023/08/27 06:44:03;;;;;;;7.18;2.83;;;;;;;;;;5030010;28;20270;-62
2023/08/27 06:46:29;;;;;;;12.88;3.70;;;;;;;;;;5028584;28;20017;-69
2023/08/27 06:48:56;;;;;;;7.85;3.25;;;;;;;;;;5029584;28;20047;-66
2023/08/27 06:51:21;;;;;;;6.45;3.10;;;;;;;;;;5029520;28;20025;-66
2023/08/27 06:53:46;;;;;;;9.55;3.80;;;;;;;;;;5027873;28;20017;-66
2023/08/27 06:56:11;;;;;;;6.97;3.67;;;;;;;;;;5028200;28;20112;-67
2023/08/27 06:58:37;;;;;;;10.15;2.80;;;;;;;;;;5029904;28;20108;-67
2023/08/27 07:01:05;;;;;;;8.35;4.15;;;;;;;;;;5022603;28;20383;-66
2023/08/27 07:03:31;;;;;;;9.27;2.97;;;;;;;;;;5022344;28;20021;-65
2023/08/27 07:05:56;;;;;;;9.07;2.85;;;;;;;;;;5014020;28;20040;-66
2023/08/27 07:08:21;;;;;;;5.95;2.65;;;;;;;;;;5021021;28;20033;-65
2023/08/27 07:10:47;;;;;;;7.82;3.38;;;;;;;;;;5029231;28;20029;-67
2023/08/27 07:13:13;;;;;;;5.65;2.85;;;;;;;;;;5024559;28;20032;-65
2023/08/27 07:15:38;;;;;;;7.70;2.17;;;;;;;;;;5029553;28;20061;-68
2023/08/27 07:18:03;;;;;;;9.98;2.58;;;;;;;;;;5027715;28;20340;-67
2023/08/27 07:20:29;;;;;;;9.57;3.13;;;;;;;;;;5028086;28;20896;-68
2023/08/27 07:22:54;;;;;;;9.85;2.90;;;;;;;;;;5029725;28;20121;-67
2023/08/27 07:25:23;;;;;;;5.93;2.95;;;;;;;;;;5028492;28;20052;-66
2023/08/27 07:27:48;;;;;;;12.05;2.75;;;;;;;;;;5029498;28;20041;-68
2023/08/27 07:30:13;;;;;;;7.18;2.92;;;;;;;;;;5029830;28;20038;-67
2023/08/27 07:32:38;;;;;;;6.15;2.80;;;;;;;;;;5028583;28;20639;-67
2023/08/27 07:35:04;;;;;;;7.70;2.92;;;;;;;;;;5028996;28;20502;-66
2023/08/27 07:37:29;;;;;;;7.03;2.35;;;;;;;;;;5029480;28;20025;-64
2023/08/27 07:39:54;;;;;;;6.55;2.03;;;;;;;;;;5027720;28;20032;-66
2023/08/27 07:42:21;;;;;;;6.53;2.42;;;;;;;;;;5029495;28;20018;-66
2023/08/27 07:44:46;;;;;;;8.30;2.53;;;;;;;;;;5029045;28;20022;-66
2023/08/27 07:47:12;;;;;;;7.82;3.15;;;;;;;;;;5028915;28;20082;-67
2023/08/27 07:49:37;;;;;;;7.30;2.92;;;;;;;;;;5029524;28;20122;-67
2023/08/27 07:52:02;;;;;;;8.60;2.70;;;;;;;;;;5029574;28;20149;-65
2023/08/27 07:54:27;;;;;;;6.38;3.03;;;;;;;;;;5024112;28;20017;-66
2023/08/27 07:56:53;;;;;;;6.72;2.83;;;;;;;;;;5021661;28;20080;-67
2023/08/27 07:59:18;;;;;;;7.78;2.78;;;;;;;;;;5028685;28;20095;-68
2023/08/27 08:01:43;;;;;;;6.72;3.15;;;;;;;;;;5026322;28;20351;-69
2023/08/27 08:04:09;;;;;;;8.30;2.67;;;;;;;;;;5026268;28;20021;-65
2023/08/27 08:06:34;;;;;;;9.88;3.42;;;;;;;;;;5028859;28;20017;-68
2023/08/27 08:08:59;;;;;;;5.00;2.72;;;;;;;;;;5027833;28;20033;-66
2023/08/27 08:11:24;;;;;;;8.73;3.17;;;;;;;;;;5028605;28;20029;-71
2023/08/27 08:13:51;;;;;;;5.63;2.60;;;;;;;;;;5026664;28;20029;-70
2023/08/27 08:16:16;;;;;;;7.35;2.65;;;;;;;;;;5028730;28;20108;-68
2023/08/27 08:18:41;;;;;;;7.72;2.85;;;;;;;;;;5027229;28;20097;-65
2023/08/27 08:21:06;;;;;;;7.07;2.92;;;;;;;;;;5028994;28;20017;-68
2023/08/27 08:23:32;;;;;;;7.80;3.47;;;;;;;;;;5027414;28;20434;-69
2023/08/27 08:25:59;;;;;;;9.27;3.40;;;;;;;;;;5027929;28;20053;-67
2023/08/27 08:28:24;;;;;;;5.22;2.75;;;;;;;;;;5029429;28;20088;-69
2023/08/27 08:30:49;;;;;;;6.15;2.85;;;;;;;;;;5028489;28;20494;-67
2023/08/27 08:33:15;;;;;;;11.25;3.15;;;;;;;;;;5027615;28;20104;-71
2023/08/27 08:35:41;;;;;;;6.10;3.15;;;;;;;;;;5028566;28;20017;-66
2023/08/27 08:38:06;;;;;;;7.40;2.88;;;;;;;;;;5026107;28;20021;-66
2023/08/27 08:40:35;;;;;;;11.07;2.88;;;;;;;;;;5026324;28;20033;-68
2023/08/27 08:43:00;;;;;;;10.07;2.88;;;;;;;;;;5028791;28;20404;-70
2023/08/27 08:45:29;;;;;;;5.28;2.90;;;;;;;;;;5026504;28;20029;-69
2023/08/27 08:47:56;;;;;;;6.55;3.05;;;;;;;;;;5026584;28;20032;-69
2023/08/27 08:50:22;;;;;;;8.85;3.28;;;;;;;;;;5028893;28;20013;-67
2023/08/27 08:52:48;;;;;;;7.38;3.28;;;;;;;;;;5029371;28;20034;-68
2023/08/27 08:55:14;;;;;;;10.07;3.22;;;;;;;;;;5022359;28;20100;-66
2023/08/27 08:57:56;;;;;;;7.32;2.92;;;;;;;;;;5019174;28;20108;-67
2023/08/27 09:00:22;;;;;;;6.22;3.10;;;;;;;;;;5028382;28;20167;-67
2023/08/27 09:02:47;;;;;;;6.32;3.15;;;;;;;;;;5027272;28;20096;-69
2023/08/27 09:05:15;;;;;;;5.68;2.97;;;;;;;;;;5027227;28;20010;-69
2023/08/27 09:07:42;;;;;;;6.07;2.13;;;;;;;;;;5028117;28;20014;-66
2023/08/27 09:10:09;;;;;;;9.60;2.75;;;;;;;;;;5027539;28;20050;-69
2023/08/27 09:12:39;;;;;;;7.07;2.72;;;;;;;;;;5027834;28;20037;-68
2023/08/27 09:15:05;;;;;;;5.03;2.47;;;;;;;;;;5028108;28;20460;-66
2023/08/27 09:17:30;;;;;;;6.93;2.55;;;;;;;;;;5028162;28;20549;-68
2023/08/27 09:19:55;;;;;;;7.35;3.10;;;;;;;;;;5028477;28;20020;-68
2023/08/27 09:22:20;;;;;;;14.07;3.93;;;;;;;;;;5028292;28;20101;-70
2023/08/27 09:24:46;;;;;;;7.68;3.15;;;;;;;;;;5026603;28;20259;-70
2023/08/27 09:27:15;;;;;;;14.10;3.20;;;;;;;;;;5025964;28;20029;-66
2023/08/27 09:29:41;;;;;;;8.77;2.95;;;;;;;;;;5027906;28;20047;-67
2023/08/27 09:32:06;;;;;;;9.07;4.28;;;;;;;;;;5027373;28;20025;-68
2023/08/27 09:34:39;;;;;;;9.45;3.28;;;;;;;;;;5025420;28;20128;-67
2023/08/27 09:37:05;;;;;;;7.63;3.15;;;;;;;;;;5028276;28;20091;-68
2023/08/27 09:39:31;;;;;;;14.80;4.10;;;;;;;;;;5027072;28;20025;-69
2023/08/27 09:41:58;;;;;;;8.45;3.58;;;;;;;;;;5026734;28;20028;-68
2023/08/27 09:44:24;;;;;;;14.25;3.88;;;;;;;;;;5024860;28;20025;-68
2023/08/27 09:46:51;;;;;;;8.82;4.70;;;;;;;;;;5028091;28;20127;-70
2023/08/27 09:49:16;;;;;;;9.80;4.43;;;;;;;;;;5027562;28;20073;-68
2023/08/27 09:51:42;;;;;;;10.70;4.72;;;;;;;;;;5027722;28;20022;-69
2023/08/27 09:54:14;;;;;;;12.65;5.40;;;;;;;;;;5016586;28;20492;-67
2023/08/27 09:56:42;;;;;;;9.70;5.95;;;;;;;;;;5020973;28;20040;-69
2023/08/27 09:59:08;;;;;;;10.43;4.85;;;;;;;;;;5027234;28;20067;-70
2023/08/27 10:01:34;;;;;;;8.73;4.60;;;;;;;;;;5027309;28;20057;-67
2023/08/27 10:04:07;;;;;;;10.30;4.28;;;;;;;;;;5024240;28;20108;-68
2023/08/27 10:06:39;;;;;;;11.00;4.10;;;;;;;;;;5027114;28;20090;-73
2023/08/27 10:09:04;;;;;;;9.82;4.40;;;;;;;;;;5008342;28;20361;-66
2023/08/27 10:11:31;;;;;;;11.85;4.53;;;;;;;;;;5026603;28;20649;-68
2023/08/27 10:13:57;;;;;;;15.57;4.78;;;;;;;;;;5024188;28;20029;-68
2023/08/27 10:16:23;;;;;;;7.85;4.78;;;;;;;;;;5012856;28;20041;-69
2023/08/27 10:18:48;;;;;;;8.80;4.25;;;;;;;;;;5023953;28;20025;-66
2023/08/27 10:21:14;;;;;;;11.75;3.72;;;;;;;;;;5026976;28;20021;-67
2023/08/27 10:23:39;;;;;;;9.60;3.60;;;;;;;;;;5025444;28;20088;-67
2023/08/27 10:26:05;;;;;;;10.50;3.58;;;;;;;;;;5026888;28;20041;-66
2023/08/27 10:28:31;;;;;;;8.40;2.90;;;;;;;;;;5019940;28;20094;-68
2023/08/27 10:30:56;;;;;;;9.10;3.67;;;;;;;;;;5011127;28;20052;-65
2023/08/27 10:33:22;;;;;;;5.30;2.75;;;;;;;;;;5009147;28;20052;-68
2023/08/27 10:35:48;;;;;;;8.43;3.30;;;;;;;;;;5009870;28;20478;-68
2023/08/27 10:38:15;;;;;;;8.68;3.40;;;;;;;;;;5008726;28;20026;-68
2023/08/27 10:40:44;;;;;;;6.88;3.13;;;;;;;;;;5009892;28;20506;-68
2023/08/27 10:43:17;;;;;;;8.50;3.33;;;;;;;;;;5011582;28;20041;-72
2023/08/27 10:45:42;;;;;;;8.73;3.17;;;;;;;;;;5007971;28;20044;-67
2023/08/27 10:48:10;;;;;;;6.22;2.60;;;;;;;;;;5011753;28;20445;-68
2023/08/27 10:50:48;;;;;;;6.78;2.33;;;;;;;;;;5011511;28;20030;-67
2023/08/27 10:53:17;;;;;;;7.10;2.40;;;;;;;;;;5006655;28;20025;-69
2023/08/27 10:55:43;;;;;;;5.47;2.60;;;;;;;;;;5009269;28;20113;-68
2023/08/27 10:58:25;;;;;;;5.60;2.70;;;;;;;;;;5012574;28;20029;-68
2023/08/27 11:00:56;;;;;;;7.72;2.88;;;;;;;;;;5014216;28;20041;-65
2023/08/27 11:03:21;;;;;;;7.93;3.03;;;;;;;;;;5010495;28;20034;-66
2023/08/27 11:06:07;;;;;;;7.88;3.08;;;;;;;;;;5024925;28;20044;-69
2023/08/27 11:08:35;;;;;;;10.70;3.80;;;;;;;;;;5021689;28;20018;-69
2023/08/27 11:11:00;;;;;;;;;;;;;;;;;;5021231;28;20055;-68
2023/08/27 11:13:34;;;;;;;8.15;3.80;;;;;;;;;;5028086;28;19913;-71
2023/08/27 11:15:59;;;;;;;10.93;3.13;;;;;;;;;;5028849;28;20040;-73
2023/08/27 11:18:25;;;;;;;7.28;3.00;;;;;;;;;;5019860;28;20047;-64
2023/08/27 11:20:51;;;;;;;7.82;3.50;;;;;;;;;;5029997;28;20456;-67
2023/08/27 11:23:16;;;;;;;11.32;3.30;;;;;;;;;;5029307;28;20021;-69
2023/08/27 11:25:42;;;;;;;6.97;3.15;;;;;;;;;;5029518;28;20048;-68
2023/08/27 11:28:08;;;;;;;8.63;3.50;;;;;;;;;;5029723;28;20029;-67
2023/08/27 11:30:33;;;;;;;5.43;2.70;;;;;;;;;;5021231;28;20017;-69
2023/08/27 11:32:59;;;;;;;6.32;3.03;;;;;;;;;;5026847;28;20031;-69
2023/08/27 11:35:27;;;;;;;8.70;3.03;;;;;;;;;;5027390;28;20037;-65
2023/08/27 11:37:53;;;;;;;6.03;2.97;;;;;;;;;;5007919;28;20817;-68
2023/08/27 11:40:22;;;;;;;6.35;2.90;;;;;;;;;;5011937;28;20399;-70
2023/08/27 11:42:50;;;;;;;8.48;3.20;;;;;;;;;;5013385;28;20041;-69
2023/08/27 11:45:16;;;;;;;5.40;2.78;;;;;;;;;;5009537;28;20053;-65
2023/08/27 11:47:42;;;;;;;7.18;3.53;;;;;;;;;;5009228;28;20080;-69
2023/08/27 11:50:08;;;;;;;6.63;2.58;;;;;;;;;;5015483;28;20486;-69
2023/08/27 11:52:35;;;;;;;5.60;2.42;;;;;;;;;;5010159;28;20049;-69
2023/08/27 11:55:00;;;;;;;9.35;2.45;;;;;;;;;;5009781;28;20518;-67
2023/08/27 11:57:26;;;;;;;14.07;2.80;;;;;;;;;;5007885;28;20030;-65
2023/08/27 11:59:53;;;;;;;6.63;2.30;;;;;;;;;;5014533;28;20760;-67
2023/08/27 12:02:19;;;;;;;9.60;2.53;;;;;;;;;;5011444;28;20091;-66
2023/08/27 12:04:45;;;;;;;7.82;2.85;;;;;;;;;;5007243;28;20144;-67
2023/08/27 12:07:10;;;;;;;7.60;3.45;;;;;;;;;;5014095;28;20040;-65
2023/08/27 12:09:36;;;;;;;6.57;2.90;;;;;;;;;;5007805;28;20029;-66
2023/08/27 12:12:02;;;;;;;9.13;3.35;;;;;;;;;;5007047;28;20034;-69
2023/08/27 12:14:28;;;;;;;9.45;3.22;;;;;;;;;;5011263;28;20071;-67
2023/08/27 12:16:53;;;;;;;8.38;2.92;;;;;;;;;;5011904;28;20029;-67
2023/08/27 12:19:22;;;;;;;10.52;3.03;;;;;;;;;;5010683;28;20029;-66
2023/08/27 12:21:47;;;;;;;8.25;2.70;;;;;;;;;;5014556;28;20034;-68
2023/08/27 12:24:28;;;;;;;6.28;2.58;;;;;;;;;;5022046;28;20525;-67
2023/08/27 12:26:54;;;;;;;8.02;3.60;;;;;;;;;;5025339;28;20021;-66
2023/08/27 12:29:19;;;;;;;6.55;3.60;;;;;;;;;;5024372;28;20021;-69
2023/08/27 12:31:45;;;;;;;6.00;3.42;;;;;;;;;;5021776;28;20601;-67
2023/08/27 12:34:10;;;;;;;14.05;3.90;;;;;;;;;;5025320;28;20036;-65
2023/08/27 12:36:36;;;;;;;7.30;3.17;;;;;;;;;;5026016;28;20025;-65
2023/08/27 12:39:02;;;;;;;7.25;3.10;;;;;;;;;;4989612;23;20492;-69
2023/08/27 12:41:28;;;;;;;10.50;3.58;;;;;;;;;;4966669;28;20027;-69
2023/08/27 12:43:55;;;;;;;5.78;3.20;;;;;;;;;;4969291;28;20420;-68
2023/08/27 12:46:21;;;;;;;12.60;3.08;;;;;;;;;;4973096;28;20045;-68
2023/08/27 12:48:46;;;;;;;6.72;2.70;;;;;;;;;;4970712;28;20584;-68
2023/08/27 12:51:12;;;;;;;8.07;2.83;;;;;;;;;;4995282;28;20053;-65
2023/08/27 12:53:37;;;;;;;10.40;2.92;;;;;;;;;;4980006;28;20786;-68
2023/08/27 12:56:03;;;;;;;6.38;2.80;;;;;;;;;;4974100;28;20031;-69
2023/08/27 12:58:28;;;;;;;5.78;2.50;;;;;;;;;;4980221;28;20022;-68
2023/08/27 13:00:53;;;;;;;6.38;2.13;;;;;;;;;;4987140;28;20069;-69
2023/08/27 13:03:19;;;;;;;6.70;2.08;;;;;;;;;;4975888;28;20023;-67
2023/08/27 13:05:44;;;;;;;5.57;1.98;;;;;;;;;;4999061;28;20014;-69
2023/08/27 13:08:09;;;;;;;5.03;2.17;;;;;;;;;;4999985;28;20476;-68
2023/08/27 13:10:34;;;;;;;7.53;2.22;;;;;;;;;;4994930;28;20026;-71
2023/08/27 13:13:00;;;;;;;3.20;1.75;;;;;;;;;;4974110;28;20057;-73
2023/08/27 13:15:25;;;;;;;8.10;1.60;;;;;;;;;;4987105;28;20356;-70
2023/08/27 13:17:51;;;;;;;4.63;1.42;;;;;;;;;;4987070;28;20054;-69
2023/08/27 13:20:16;;;;;;;4.47;1.63;;;;;;;;;;4997461;28;20026;-68
2023/08/27 13:22:41;;;;;;;4.60;1.55;;;;;;;;;;4989358;28;20536;-71
2023/08/27 13:25:07;;;;;;;5.85;1.38;;;;;;;;;;4986169;28;20044;-70
2023/08/27 13:27:32;;;;;;;3.58;1.50;;;;;;;;;;4988237;28;20087;-71
2023/08/27 13:29:57;;;;;;;4.85;1.58;;;;;;;;;;4981516;28;20523;-75
2023/08/27 13:32:23;;;;;;;4.07;1.50;;;;;;;;;;4977579;28;20086;-69
2023/08/27 13:34:49;;;;;;;4.00;1.75;;;;;;;;;;4989422;28;20030;-68
2023/08/27 13:37:14;;;;;;;5.72;2.30;;;;;;;;;;4987126;28;20045;-72
2023/08/27 13:39:39;;;;;;;2.28;1.13;;;;;;;;;;4976353;28;20045;-69
2023/08/27 13:42:04;;;;;;;5.88;1.40;;;;;;;;;;4973621;28;20093;-70
2023/08/27 13:44:30;;;;;;;6.38;1.50;;;;;;;;;;4972780;28;20014;-72
2023/08/27 13:46:55;;;;;;;2.40;1.20;;;;;;;;;;4971518;28;20034;-69
2023/08/27 13:49:20;;;;;;;3.08;1.23;;;;;;;;;;4971290;28;20096;-75
2023/08/27 13:51:46;;;;;;;2.80;1.30;;;;;;;;;;4969810;28;20073;-72
2023/08/27 13:54:11;;;;;;;3.78;1.30;;;;;;;;;;4968626;28;20081;-72
2023/08/27 13:56:36;;;;;;;3.27;1.30;;;;;;;;;;4972543;28;20049;-72
2023/08/27 13:59:02;;;;;;;6.93;1.30;;;;;;;;;;4973784;28;20272;-67
2023/08/27 14:01:29;;;;;;;2.20;1.30;;;;;;;;;;4969681;28;20111;-71
2023/08/27 14:03:54;;;;;;;2.55;1.00;;;;;;;;;;4974482;28;20030;-68
2023/08/27 14:06:20;;;;;;;5.88;1.30;;;;;;;;;;4971492;28;20054;-72
2023/08/27 14:08:45;;;;;;;2.92;1.20;;;;;;;;;;4975544;28;20038;-73
2023/08/27 14:11:10;;;;;;;2.60;1.20;;;;;;;;;;4973093;28;20035;-71
2023/08/27 14:13:38;;;;;;;5.82;0.98;;;;;;;;;;4981407;28;20027;-68
2023/08/27 14:16:03;;;;;;;3.05;1.20;;;;;;;;;;4979497;28;20029;-73
2023/08/27 14:18:29;;;;;;;3.50;1.20;;;;;;;;;;4992508;28;20026;-68
2023/08/27 14:20:54;;;;;;;1.73;0.82;;;;;;;;;;4993421;28;20050;-67
2023/08/27 14:23:20;;;;;;;4.15;1.45;;;;;;;;;;4988252;28;20062;-74
2023/08/27 14:25:45;;;;;;;4.65;1.55;;;;;;;;;;4988541;28;20022;-70
2023/08/27 14:28:10;;;;;;;5.32;1.20;;;;;;;;;;4978505;28;20030;-72
2023/08/27 14:30:36;;;;;;;6.70;1.35;;;;;;;;;;4990955;28;20392;-73
2023/08/27 14:33:01;;;;;;;2.97;1.10;;;;;;;;;;4991243;28;20030;-72